Time;durP1;ratioP1;P1;durP2;ratioP2;P2;SDS_P1;SDS_P2;PMS_P1;PMS_P2;Temp;Humidity;BMP_temperature;BMP_pressure;BME280_temperature;BME280_humidity;BME280_pressure;Samples;Min_cycle;Max_cycle;Signal;HPM_P1;HPM_P2
2022/01/14 00:01:45;;;;;;;48.43;26.80;;;;;;;;;;5036517;23;20844;-77
2022/01/14 00:04:11;;;;;;;56.10;26.87;;;;;;;;;;5055726;28;20409;-77
2022/01/14 00:06:37;;;;;;;45.53;23.93;;;;;;;;;;5055725;28;20409;-77
2022/01/14 00:09:06;;;;;;;48.20;24.23;;;;;;;;;;5055944;28;20508;-78
2022/01/14 00:11:34;;;;;;;45.67;24.33;;;;;;;;;;5055962;28;20485;-76
2022/01/14 00:15:22;;;;;;;54.03;24.73;;;;;;;;;;5055908;28;20409;-78
2022/01/14 00:16:55;;;;;;;48.07;24.40;;;;;;;;;;5048694;28;20409;-77
2022/01/14 00:19:21;;;;;;;53.60;25.40;;;;;;;;;;5056334;28;20770;-78
2022/01/14 00:21:47;;;;;;;53.83;23.70;;;;;;;;;;5055735;28;20453;-78
2022/01/14 00:32:40;;;;;;;58.10;26.67;;;;;;;;;;5055228;28;20394;-77
2022/01/14 00:34:56;;;;;;;61.53;28.60;;;;;;;;;;5054656;28;20417;-77
2022/01/14 00:37:22;;;;;;;56.37;27.70;;;;;;;;;;5053001;28;20414;-77
2022/01/14 00:39:48;;;;;;;69.37;30.20;;;;;;;;;;5055265;28;20433;-77
2022/01/14 00:42:14;;;;;;;60.23;27.23;;;;;;;;;;5055291;28;20417;-77
2022/01/14 00:44:41;;;;;;;81.30;30.07;;;;;;;;;;5054974;28;20421;-78
2022/01/14 00:47:07;;;;;;;55.83;27.67;;;;;;;;;;5053883;28;20906;-78
2022/01/14 00:49:33;;;;;;;64.50;31.60;;;;;;;;;;5054746;28;20440;-78
2022/01/14 00:51:59;;;;;;;70.57;30.77;;;;;;;;;;5054692;28;20496;-78
2022/01/14 00:54:26;;;;;;;70.50;33.43;;;;;;;;;;5053733;28;20804;-78
2022/01/14 00:59:34;;;;;;;71.97;29.80;;;;;;;;;;5054830;28;20442;-77
2022/01/14 01:02:01;;;;;;;68.33;31.13;;;;;;;;;;5054232;28;20466;-77
2022/01/14 01:04:31;;;;;;;59.93;30.00;;;;;;;;;;5054428;28;20424;-77
2022/01/14 01:06:58;;;;;;;63.40;29.77;;;;;;;;;;5054698;28;20398;-77
2022/01/14 01:09:25;;;;;;;72.80;30.40;;;;;;;;;;5054706;28;20452;-77
2022/01/14 01:12:04;;;;;;;67.47;28.90;;;;;;;;;;5054434;28;20928;-77
2022/01/14 01:14:39;;;;;;;59.70;28.97;;;;;;;;;;5054826;28;20904;-77
2022/01/14 01:17:06;;;;;;;73.20;29.37;;;;;;;;;;5055617;28;20389;-77
2022/01/14 01:19:32;;;;;;;63.33;30.83;;;;;;;;;;5053543;28;20437;-77
2022/01/14 01:21:58;;;;;;;66.90;28.63;;;;;;;;;;5054393;28;20457;-77
2022/01/14 01:24:24;;;;;;;71.53;29.53;;;;;;;;;;5054078;28;20451;-77
2022/01/14 01:26:51;;;;;;;60.87;28.60;;;;;;;;;;5054199;28;20444;-77
2022/01/14 01:31:45;;;;;;;69.17;31.00;;;;;;;;;;5054200;28;20464;-77
2022/01/14 01:34:13;;;;;;;68.17;30.30;;;;;;;;;;5052886;28;20531;-77
2022/01/14 01:36:40;;;;;;;57.13;29.00;;;;;;;;;;5053178;28;20413;-78
2022/01/14 01:39:08;;;;;;;60.90;29.47;;;;;;;;;;5054135;28;20422;-77
2022/01/14 01:41:38;;;;;;;67.00;29.00;;;;;;;;;;5054008;28;21019;-78
2022/01/14 01:44:06;;;;;;;65.90;30.17;;;;;;;;;;5057106;28;20842;-78
2022/01/14 01:46:32;;;;;;;69.53;27.40;;;;;;;;;;5057681;28;20883;-79
2022/01/14 01:48:59;;;;;;;68.60;28.80;;;;;;;;;;5055888;28;20453;-78
2022/01/14 01:51:25;;;;;;;63.73;28.90;;;;;;;;;;5057798;28;20779;-78
2022/01/14 01:53:51;;;;;;;59.57;28.60;;;;;;;;;;5057746;28;20410;-78
2022/01/14 01:56:17;;;;;;;66.57;29.90;;;;;;;;;;5054867;28;20406;-78
2022/01/14 01:58:44;;;;;;;68.60;29.40;;;;;;;;;;5054008;28;20441;-77
2022/01/14 02:01:10;;;;;;;64.13;28.10;;;;;;;;;;5053776;28;20824;-77
2022/01/14 02:03:36;;;;;;;66.50;27.80;;;;;;;;;;5053633;28;20405;-77
2022/01/14 02:06:03;;;;;;;61.73;27.90;;;;;;;;;;5056118;28;20751;-78
2022/01/14 02:08:30;;;;;;;67.60;30.67;;;;;;;;;;5056737;28;20512;-78
2022/01/14 02:10:56;;;;;;;62.27;28.83;;;;;;;;;;5056662;28;20409;-78
2022/01/14 02:13:22;;;;;;;69.40;28.30;;;;;;;;;;5053327;28;20462;-77
2022/01/14 02:16:01;;;;;;;63.20;30.60;;;;;;;;;;5053332;28;20901;-77
2022/01/14 02:23:44;;;;;;;74.23;28.30;;;;;;;;;;5057959;28;20390;-78
2022/01/14 02:26:10;;;;;;;59.30;28.53;;;;;;;;;;5058861;28;20398;-79
2022/01/14 02:28:37;;;;;;;70.90;30.77;;;;;;;;;;5065776;28;20418;-78
2022/01/14 02:31:03;;;;;;;71.93;30.30;;;;;;;;;;5056964;28;20412;-78
2022/01/14 02:33:30;;;;;;;72.47;31.50;;;;;;;;;;5056911;28;20467;-79
2022/01/14 02:35:56;;;;;;;75.83;31.47;;;;;;;;;;5056874;28;20406;-79
2022/01/14 02:38:22;;;;;;;54.00;27.77;;;;;;;;;;5056566;28;20475;-78
2022/01/14 02:40:48;;;;;;;58.00;30.40;;;;;;;;;;5056869;28;20453;-78
2022/01/14 02:43:16;;;;;;;63.00;29.17;;;;;;;;;;5056442;28;20402;-78
2022/01/14 02:45:46;;;;;;;66.47;32.73;;;;;;;;;;5056691;28;20413;-78
2022/01/14 02:48:12;;;;;;;58.13;29.23;;;;;;;;;;5046872;28;20441;-78
2022/01/14 02:50:43;;;;;;;66.27;30.60;;;;;;;;;;5050014;28;20440;-78
2022/01/14 02:53:30;;;;;;;51.60;26.37;;;;;;;;;;5056153;28;20394;-78
2022/01/14 02:55:58;;;;;;;66.10;31.50;;;;;;;;;;5055846;28;20924;-77
2022/01/14 02:58:25;;;;;;;60.10;28.30;;;;;;;;;;5055494;28;20418;-78
2022/01/14 03:00:52;;;;;;;55.43;27.10;;;;;;;;;;5052513;28;20469;-78
2022/01/14 03:03:22;;;;;;;46.03;24.10;;;;;;;;;;5056599;28;20511;-77
2022/01/14 03:05:49;;;;;;;54.70;28.10;;;;;;;;;;5056845;28;20393;-77
2022/01/14 03:08:16;;;;;;;62.53;28.67;;;;;;;;;;5056398;28;20548;-77
2022/01/14 03:10:42;;;;;;;56.30;27.47;;;;;;;;;;5056590;28;20414;-77
2022/01/14 03:13:08;;;;;;;60.43;29.40;;;;;;;;;;5056602;28;20428;-77
2022/01/14 03:15:34;;;;;;;63.23;28.10;;;;;;;;;;5056877;28;20438;-77
2022/01/14 03:18:00;;;;;;;57.90;27.23;;;;;;;;;;5056311;28;20917;-77
2022/01/14 03:20:48;;;;;;;58.63;31.37;;;;;;;;;;5055044;28;20544;-77
2022/01/14 03:23:15;;;;;;;61.67;27.40;;;;;;;;;;5054955;28;20409;-77
2022/01/14 03:25:51;;;;;;;55.07;25.80;;;;;;;;;;5056041;28;20402;-77
2022/01/14 03:28:19;;;;;;;52.57;27.87;;;;;;;;;;5056101;28;20409;-77
2022/01/14 03:30:45;;;;;;;64.47;31.07;;;;;;;;;;5056473;28;20819;-77
2022/01/14 03:33:11;;;;;;;56.80;27.33;;;;;;;;;;5054852;28;20414;-77
2022/01/14 03:35:37;;;;;;;49.63;28.20;;;;;;;;;;5056447;28;20772;-77
2022/01/14 03:38:04;;;;;;;58.60;26.73;;;;;;;;;;5056349;28;20512;-77
2022/01/14 03:40:30;;;;;;;53.50;26.17;;;;;;;;;;5056255;28;20452;-77
2022/01/14 03:42:56;;;;;;;57.97;26.00;;;;;;;;;;5054890;28;20452;-77
2022/01/14 03:45:22;;;;;;;62.70;29.90;;;;;;;;;;5055997;28;20494;-77
2022/01/14 03:47:48;;;;;;;52.47;26.83;;;;;;;;;;5056008;28;20449;-77
2022/01/14 03:50:14;;;;;;;52.73;26.60;;;;;;;;;;5056038;28;20416;-77
2022/01/14 03:52:40;;;;;;;57.10;26.80;;;;;;;;;;5055787;28;20501;-77
2022/01/14 03:55:06;;;;;;;60.20;29.07;;;;;;;;;;5055868;28;20405;-77
2022/01/14 03:57:32;;;;;;;51.63;27.10;;;;;;;;;;5055938;28;20406;-78
2022/01/14 03:59:58;;;;;;;54.63;27.17;;;;;;;;;;5055820;28;20786;-77
2022/01/14 04:02:24;;;;;;;56.30;26.73;;;;;;;;;;5055878;28;20980;-79
2022/01/14 04:04:50;;;;;;;50.20;25.80;;;;;;;;;;5055918;28;20456;-77
2022/01/14 04:07:16;;;;;;;52.73;28.43;;;;;;;;;;5055801;28;20467;-77
2022/01/14 04:09:43;;;;;;;49.80;25.07;;;;;;;;;;5054417;28;20848;-77
2022/01/14 04:12:16;;;;;;;53.37;27.03;;;;;;;;;;5054244;28;20414;-78
2022/01/14 04:17:11;;;;;;;52.07;26.77;;;;;;;;;;5057327;28;20498;-77
2022/01/14 04:19:37;;;;;;;53.37;25.07;;;;;;;;;;5053478;28;20485;-77
2022/01/14 04:22:03;;;;;;;56.40;28.00;;;;;;;;;;5045616;28;20458;-77
2022/01/14 04:24:29;;;;;;;49.97;26.67;;;;;;;;;;5039848;28;20945;-77
2022/01/14 04:26:55;;;;;;;51.37;25.80;;;;;;;;;;5044221;28;20401;-78
2022/01/14 04:29:21;;;;;;;49.77;24.00;;;;;;;;;;5057393;28;20429;-77
2022/01/14 04:31:47;;;;;;;49.83;25.67;;;;;;;;;;5057654;28;20430;-77
2022/01/14 04:34:16;;;;;;;50.83;25.53;;;;;;;;;;5057325;28;20417;-77
2022/01/14 04:36:42;;;;;;;51.53;25.70;;;;;;;;;;5058003;28;20421;-77
2022/01/14 04:39:08;;;;;;;54.60;25.27;;;;;;;;;;5057827;28;20425;-77
2022/01/14 04:41:34;;;;;;;55.27;26.53;;;;;;;;;;5056567;28;20456;-77
2022/01/14 04:44:01;;;;;;;51.90;25.77;;;;;;;;;;5057724;28;20438;-78
2022/01/14 04:48:56;;;;;;;50.90;25.60;;;;;;;;;;5069265;28;20529;-79
2022/01/14 04:51:22;;;;;;;45.57;25.40;;;;;;;;;;5067429;28;20891;-79
2022/01/14 04:53:49;;;;;;;49.67;25.07;;;;;;;;;;5063627;28;20409;-78
2022/01/14 04:56:15;;;;;;;44.67;22.93;;;;;;;;;;5064469;28;20398;-79
2022/01/14 04:58:41;;;;;;;45.87;23.30;;;;;;;;;;5068383;28;20430;-79
2022/01/14 05:01:07;;;;;;;44.47;21.97;;;;;;;;;;5057505;28;20462;-79
2022/01/14 05:03:33;;;;;;;51.23;25.43;;;;;;;;;;5037197;28;20526;-79
2022/01/14 05:06:01;;;;;;;47.10;23.97;;;;;;;;;;5036971;28;20421;-78
2022/01/14 05:08:35;;;;;;;42.77;22.50;;;;;;;;;;5056938;28;20430;-77
2022/01/14 05:11:22;;;;;;;43.57;21.47;;;;;;;;;;5063079;28;20393;-79
2022/01/14 05:13:48;;;;;;;47.03;24.90;;;;;;;;;;5062975;28;20409;-79
2022/01/14 05:16:14;;;;;;;41.87;21.83;;;;;;;;;;5059520;28;20465;-79
2022/01/14 05:18:41;;;;;;;42.20;20.97;;;;;;;;;;5082267;23;20481;-62
2022/01/14 05:21:07;;;;;;;40.87;20.73;;;;;;;;;;5073848;28;20453;-62
2022/01/14 05:23:33;;;;;;;37.27;21.50;;;;;;;;;;5094099;28;20464;-62
2022/01/14 05:25:59;;;;;;;43.37;22.10;;;;;;;;;;5094422;28;20585;-62
2022/01/14 05:28:25;;;;;;;42.83;22.37;;;;;;;;;;5094619;28;20427;-62
2022/01/14 05:30:51;;;;;;;38.17;19.77;;;;;;;;;;5094220;28;20608;-62
2022/01/14 05:33:18;;;;;;;39.17;19.70;;;;;;;;;;5094044;28;20412;-62
2022/01/14 05:35:44;;;;;;;37.90;20.37;;;;;;;;;;5094179;28;20484;-62
2022/01/14 05:38:10;;;;;;;40.13;23.10;;;;;;;;;;5094053;28;20496;-62
2022/01/14 05:40:36;;;;;;;33.23;18.93;;;;;;;;;;5094249;28;20479;-62
2022/01/14 05:43:02;;;;;;;46.17;22.50;;;;;;;;;;5093919;28;20443;-62
2022/01/14 05:45:28;;;;;;;34.17;20.27;;;;;;;;;;5093937;28;20488;-62
2022/01/14 05:47:54;;;;;;;35.10;19.27;;;;;;;;;;5093788;28;20411;-61
2022/01/14 05:50:22;;;;;;;43.10;21.77;;;;;;;;;;5093818;28;20912;-60
2022/01/14 05:52:48;;;;;;;34.03;21.20;;;;;;;;;;5093792;28;20424;-62
2022/01/14 05:55:15;;;;;;;38.80;19.57;;;;;;;;;;5094090;28;20415;-62
2022/01/14 05:57:42;;;;;;;38.60;19.40;;;;;;;;;;5093823;28;20392;-61
2022/01/14 06:00:10;;;;;;;37.20;21.47;;;;;;;;;;5093646;28;20392;-61
2022/01/14 06:02:37;;;;;;;36.00;19.63;;;;;;;;;;5096191;22;20481;-53
2022/01/14 06:05:04;;;;;;;37.77;20.83;;;;;;;;;;5034279;28;20394;-51
2022/01/14 06:07:30;;;;;;;40.70;20.00;;;;;;;;;;5033632;28;20999;-52
2022/01/14 06:09:56;;;;;;;32.40;18.67;;;;;;;;;;5033782;28;20409;-49
2022/01/14 06:12:22;;;;;;;30.90;17.63;;;;;;;;;;5033507;28;20461;-49
2022/01/14 06:14:48;;;;;;;32.17;16.23;;;;;;;;;;5033385;28;20394;-51
2022/01/14 06:17:14;;;;;;;28.43;17.90;;;;;;;;;;5033533;28;20390;-50
2022/01/14 06:19:40;;;;;;;32.50;17.83;;;;;;;;;;5033694;28;20399;-49
2022/01/14 06:22:06;;;;;;;34.80;18.17;;;;;;;;;;5033614;28;20822;-51
2022/01/14 06:24:32;;;;;;;29.40;17.70;;;;;;;;;;5033486;28;20406;-52
2022/01/14 06:26:58;;;;;;;42.83;20.10;;;;;;;;;;5033711;28;20391;-51
2022/01/14 06:29:24;;;;;;;32.87;18.73;;;;;;;;;;5033183;28;20505;-49
2022/01/14 06:31:50;;;;;;;39.10;20.07;;;;;;;;;;5033285;28;20407;-48
2022/01/14 06:34:16;;;;;;;39.80;20.50;;;;;;;;;;5033263;28;20430;-49
2022/01/14 06:36:43;;;;;;;39.10;18.80;;;;;;;;;;5032727;28;20760;-49
2022/01/14 06:39:09;;;;;;;26.10;16.60;;;;;;;;;;5033170;28;20405;-49
2022/01/14 06:41:35;;;;;;;30.70;16.70;;;;;;;;;;5033163;28;20454;-50
2022/01/14 06:44:01;;;;;;;31.50;16.47;;;;;;;;;;5033115;28;20419;-48
2022/01/14 06:46:27;;;;;;;28.27;17.73;;;;;;;;;;5033372;28;20763;-50
2022/01/14 06:48:53;;;;;;;31.13;16.37;;;;;;;;;;5033186;28;20421;-47
2022/01/14 06:51:19;;;;;;;30.73;16.50;;;;;;;;;;5033144;28;20410;-50
2022/01/14 06:53:45;;;;;;;33.13;18.50;;;;;;;;;;5033057;28;20423;-52
2022/01/14 06:56:14;;;;;;;33.23;18.10;;;;;;;;;;5033154;28;20431;-51
2022/01/14 06:58:40;;;;;;;37.80;18.63;;;;;;;;;;5031747;28;20950;-50
2022/01/14 07:01:06;;;;;;;29.93;16.97;;;;;;;;;;5033029;28;20488;-49
2022/01/14 07:03:32;;;;;;;31.13;18.70;;;;;;;;;;5033206;28;20817;-50
2022/01/14 07:05:58;;;;;;;31.13;17.40;;;;;;;;;;5033097;28;20538;-50
2022/01/14 07:08:24;;;;;;;28.23;16.60;;;;;;;;;;5033002;28;21022;-52
2022/01/14 07:10:50;;;;;;;33.53;18.93;;;;;;;;;;5033044;28;20415;-50
2022/01/14 07:13:16;;;;;;;30.33;16.33;;;;;;;;;;5033290;28;20430;-49
2022/01/14 07:15:43;;;;;;;29.83;16.30;;;;;;;;;;5032760;28;20501;-49
2022/01/14 07:18:09;;;;;;;27.67;16.60;;;;;;;;;;5033101;28;20764;-50
2022/01/14 07:20:37;;;;;;;30.40;17.70;;;;;;;;;;5032691;28;21030;-47
2022/01/14 07:23:03;;;;;;;26.17;15.57;;;;;;;;;;5033072;28;20423;-50
2022/01/14 07:25:29;;;;;;;25.67;16.30;;;;;;;;;;5032811;28;20403;-47
2022/01/14 07:27:57;;;;;;;32.03;17.87;;;;;;;;;;5032905;28;20407;-51
2022/01/14 07:30:23;;;;;;;28.70;16.07;;;;;;;;;;5032640;28;20430;-50
2022/01/14 07:32:49;;;;;;;28.63;16.20;;;;;;;;;;5032878;28;20957;-48
2022/01/14 07:35:15;;;;;;;29.50;15.80;;;;;;;;;;5031449;28;20406;-49
2022/01/14 07:37:41;;;;;;;25.27;15.17;;;;;;;;;;5032926;28;20456;-48
2022/01/14 07:40:08;;;;;;;28.13;16.00;;;;;;;;;;5032627;28;20398;-48
2022/01/14 07:42:34;;;;;;;23.93;14.30;;;;;;;;;;5032499;28;20415;-48
2022/01/14 07:45:00;;;;;;;19.67;14.77;;;;;;;;;;5032755;28;20403;-50
2022/01/14 07:47:26;;;;;;;22.47;14.60;;;;;;;;;;5034765;28;20402;-48
2022/01/14 07:49:53;;;;;;;24.43;14.70;;;;;;;;;;5035999;28;20446;-51
2022/01/14 07:52:19;;;;;;;24.37;16.07;;;;;;;;;;5036201;28;20403;-53
2022/01/14 07:54:46;;;;;;;25.43;16.37;;;;;;;;;;5035840;28;20498;-53
2022/01/14 07:57:12;;;;;;;29.27;15.30;;;;;;;;;;5035725;28;20411;-50
2022/01/14 07:59:38;;;;;;;25.13;15.50;;;;;;;;;;5035813;28;20502;-50
2022/01/14 08:02:05;;;;;;;23.30;13.90;;;;;;;;;;5035916;28;20450;-50
2022/01/14 08:04:34;;;;;;;23.00;14.07;;;;;;;;;;5036012;28;20477;-52
2022/01/14 08:07:08;;;;;;;21.93;14.13;;;;;;;;;;5035881;28;20419;-50
2022/01/14 08:09:35;;;;;;;24.03;13.30;;;;;;;;;;5036277;28;20418;-50
2022/01/14 08:12:02;;;;;;;26.63;15.57;;;;;;;;;;5035924;28;20403;-49
2022/01/14 08:14:28;;;;;;;23.37;15.60;;;;;;;;;;5036016;28;20489;-49
2022/01/14 08:16:54;;;;;;;37.97;14.97;;;;;;;;;;5035897;28;20431;-48
2022/01/14 08:19:20;;;;;;;24.83;15.07;;;;;;;;;;5034523;28;20790;-50
2022/01/14 08:21:46;;;;;;;24.13;14.60;;;;;;;;;;5035473;28;20963;-48
2022/01/14 08:24:12;;;;;;;19.13;13.40;;;;;;;;;;5035569;28;20415;-50
2022/01/14 08:26:38;;;;;;;22.97;14.27;;;;;;;;;;5035023;28;20406;-51
2022/01/14 08:29:04;;;;;;;21.20;13.10;;;;;;;;;;5035638;28;20411;-52
2022/01/14 08:31:30;;;;;;;19.10;13.20;;;;;;;;;;5035507;28;21175;-48
2022/01/14 08:33:56;;;;;;;25.10;12.10;;;;;;;;;;5025707;28;20450;-53
2022/01/14 08:36:23;;;;;;;26.00;12.87;;;;;;;;;;5031470;28;20922;-53
2022/01/14 08:38:51;;;;;;;21.47;12.67;;;;;;;;;;5033605;28;20409;-51
2022/01/14 08:41:18;;;;;;;15.40;10.70;;;;;;;;;;5037992;28;20809;-50
2022/01/14 08:43:46;;;;;;;22.67;11.73;;;;;;;;;;5041899;28;20808;-59
2022/01/14 08:46:13;;;;;;;23.38;12.85;;;;;;;;;;5037327;28;20406;-51
2022/01/14 08:48:39;;;;;;;17.67;12.50;;;;;;;;;;5041865;28;20172;-64
2022/01/14 08:51:05;;;;;;;16.90;12.30;;;;;;;;;;5027529;28;20434;-67
2022/01/14 08:53:31;;;;;;;19.97;11.80;;;;;;;;;;5028847;28;20469;-65
2022/01/14 08:55:57;;;;;;;16.73;10.57;;;;;;;;;;5036381;28;20434;-64
2022/01/14 08:58:23;;;;;;;24.73;12.90;;;;;;;;;;5030257;28;20880;-67
2022/01/14 09:00:49;;;;;;;20.37;12.20;;;;;;;;;;5037755;28;20798;-66
2022/01/14 09:03:15;;;;;;;22.03;11.33;;;;;;;;;;5048031;28;20480;-66
2022/01/14 09:05:41;;;;;;;19.00;12.07;;;;;;;;;;5043451;28;20470;-67
2022/01/14 09:08:07;;;;;;;20.67;11.70;;;;;;;;;;5040555;28;20478;-67
2022/01/14 09:10:34;;;;;;;14.23;9.80;;;;;;;;;;5033963;28;20442;-69
2022/01/14 09:13:00;;;;;;;18.90;10.20;;;;;;;;;;5050365;28;20955;-67
2022/01/14 09:15:26;;;;;;;15.37;11.40;;;;;;;;;;5041446;28;20417;-66
2022/01/14 09:17:52;;;;;;;13.60;9.50;;;;;;;;;;5042019;28;20443;-67
2022/01/14 09:20:18;;;;;;;12.27;9.97;;;;;;;;;;5033891;28;20453;-69
2022/01/14 09:22:49;;;;;;;15.40;8.90;;;;;;;;;;5045701;28;20468;-65
2022/01/14 09:25:17;;;;;;;13.67;8.90;;;;;;;;;;5042244;28;20411;-67
2022/01/14 09:27:43;;;;;;;14.60;10.37;;;;;;;;;;5043533;28;20752;-70
2022/01/14 09:30:09;;;;;;;13.93;9.20;;;;;;;;;;5050377;28;20413;-70
2022/01/14 09:32:35;;;;;;;16.52;9.70;;;;;;;;;;5036200;28;20742;-66
2022/01/14 09:35:03;;;;;;;15.60;10.50;;;;;;;;;;5038284;28;20266;-67
2022/01/14 09:37:29;;;;;;;12.10;8.73;;;;;;;;;;5035559;28;20415;-68
2022/01/14 09:39:55;;;;;;;11.17;8.60;;;;;;;;;;5032816;28;20434;-69
2022/01/14 09:42:21;;;;;;;11.47;9.00;;;;;;;;;;5047673;28;20467;-66
2022/01/14 09:44:48;;;;;;;17.63;10.40;;;;;;;;;;5033560;28;20417;-65
2022/01/14 09:47:18;;;;;;;16.27;10.73;;;;;;;;;;5032193;28;20449;-69
2022/01/14 09:49:44;;;;;;;21.30;9.43;;;;;;;;;;5032207;28;20494;-67
2022/01/14 09:52:12;;;;;;;15.53;9.40;;;;;;;;;;5033090;28;20415;-69
2022/01/14 09:54:38;;;;;;;18.80;11.17;;;;;;;;;;5032627;28;20497;-66
2022/01/14 09:57:04;;;;;;;16.53;11.27;;;;;;;;;;5032671;28;20426;-67
2022/01/14 09:59:30;;;;;;;14.80;9.27;;;;;;;;;;5033200;28;20418;-65
2022/01/14 10:01:57;;;;;;;13.63;8.53;;;;;;;;;;5033348;28;21001;-65
2022/01/14 10:04:23;;;;;;;13.23;8.57;;;;;;;;;;5033608;28;20547;-65
2022/01/14 10:06:54;;;;;;;12.27;9.07;;;;;;;;;;5034594;28;20769;-66
2022/01/14 10:09:22;;;;;;;12.40;8.75;;;;;;;;;;5033749;28;20428;-66
2022/01/14 10:12:07;;;;;;;14.30;9.30;;;;;;;;;;5033948;28;20176;-66
2022/01/14 10:14:33;;;;;;;13.57;9.00;;;;;;;;;;5033785;28;20418;-65
2022/01/14 10:17:01;;;;;;;12.83;8.20;;;;;;;;;;5034382;28;20394;-50
2022/01/14 10:19:33;;;;;;;12.57;9.77;;;;;;;;;;5033626;28;20422;-63
2022/01/14 10:21:59;;;;;;;13.87;8.70;;;;;;;;;;5033166;28;20820;-63
2022/01/14 10:24:27;;;;;;;11.77;8.23;;;;;;;;;;5033116;28;20784;-52
2022/01/14 10:26:56;;;;;;;10.90;7.87;;;;;;;;;;5032792;28;20414;-54
2022/01/14 10:29:42;;;;;;;9.83;7.77;;;;;;;;;;5033012;28;21194;-55
2022/01/14 10:32:12;;;;;;;10.13;7.27;;;;;;;;;;5032327;28;20399;-55
2022/01/14 10:34:38;;;;;;;10.63;8.03;;;;;;;;;;5033599;28;20771;-53
2022/01/14 10:37:14;;;;;;;9.83;6.63;;;;;;;;;;5032977;28;20481;-55
2022/01/14 10:39:48;;;;;;;15.03;8.60;;;;;;;;;;5032753;28;20406;-53
2022/01/14 10:42:24;;;;;;;11.90;7.67;;;;;;;;;;5032094;28;21093;-52
2022/01/14 10:44:50;;;;;;;9.47;7.00;;;;;;;;;;5033389;28;20414;-57
2022/01/14 10:47:18;;;;;;;13.90;8.60;;;;;;;;;;5032591;28;20907;-49
2022/01/14 10:49:46;;;;;;;10.63;7.00;;;;;;;;;;5033289;28;20802;-52
2022/01/14 10:52:23;;;;;;;10.30;7.30;;;;;;;;;;5032875;28;20403;-49
2022/01/14 10:54:53;;;;;;;19.37;8.40;;;;;;;;;;5032892;28;20418;-48
2022/01/14 10:57:21;;;;;;;15.53;8.40;;;;;;;;;;5038025;28;20506;-52
2022/01/14 10:59:47;;;;;;;11.40;7.20;;;;;;;;;;5033402;28;20418;-65
2022/01/14 11:02:32;;;;;;;19.17;7.90;;;;;;;;;;5039406;28;20465;-62
2022/01/14 11:05:04;;;;;;;15.27;8.90;;;;;;;;;;5028147;28;20501;-63
2022/01/14 11:07:31;;;;;;;13.40;7.47;;;;;;;;;;5032026;28;20401;-51
2022/01/14 11:09:57;;;;;;;13.27;8.30;;;;;;;;;;5031933;28;20517;-61
2022/01/14 11:12:24;;;;;;;12.57;7.50;;;;;;;;;;5030567;28;20441;-62
2022/01/14 11:14:51;;;;;;;12.23;8.20;;;;;;;;;;5033481;28;20580;-66
2022/01/14 11:17:17;;;;;;;14.33;7.63;;;;;;;;;;5031976;28;20748;-67
2022/01/14 11:19:46;;;;;;;11.50;7.50;;;;;;;;;;5031958;28;20428;-66
2022/01/14 11:24:57;;;;;;;12.03;7.30;;;;;;;;;;5035352;28;20413;-66
2022/01/14 11:27:24;;;;;;;12.50;8.50;;;;;;;;;;5037072;28;20410;-65
2022/01/14 11:29:57;;;;;;;9.33;7.00;;;;;;;;;;5037207;28;20429;-63
2022/01/14 11:32:23;;;;;;;12.10;8.20;;;;;;;;;;5030898;28;20429;-54
2022/01/14 11:34:50;;;;;;;11.63;7.93;;;;;;;;;;5034981;28;20666;-54
2022/01/14 11:37:30;;;;;;;11.23;7.83;;;;;;;;;;5035307;28;20938;-52
2022/01/14 11:39:58;;;;;;;14.93;8.87;;;;;;;;;;5035826;28;20411;-51
2022/01/14 11:42:42;;;;;;;11.67;7.70;;;;;;;;;;5034836;28;21440;-54
2022/01/14 11:45:10;;;;;;;11.40;7.77;;;;;;;;;;5033174;28;20407;-52
2022/01/14 11:47:39;;;;;;;21.50;7.87;;;;;;;;;;5028475;28;20969;-51
2022/01/14 11:50:28;;;;;;;10.70;6.90;;;;;;;;;;5028741;28;20414;-54
2022/01/14 11:52:54;;;;;;;11.73;6.97;;;;;;;;;;5030110;28;20473;-52
2022/01/14 11:55:20;;;;;;;9.50;7.80;;;;;;;;;;5029879;28;20411;-52
2022/01/14 11:57:47;;;;;;;10.80;6.90;;;;;;;;;;5036376;28;20431;-52
2022/01/14 12:00:33;;;;;;;9.40;7.23;;;;;;;;;;5036350;28;20419;-50
2022/01/14 12:03:11;;;;;;;13.77;8.20;;;;;;;;;;5034062;28;20460;-51
2022/01/14 12:05:54;;;;;;;19.53;8.07;;;;;;;;;;5033829;28;20445;-49
2022/01/14 12:08:22;;;;;;;9.83;7.37;;;;;;;;;;5035422;28;20390;-52
2022/01/14 12:10:51;;;;;;;15.57;7.27;;;;;;;;;;5027277;28;20430;-50
2022/01/14 12:13:29;;;;;;;15.53;7.80;;;;;;;;;;5026912;28;20977;-52
2022/01/14 12:16:00;;;;;;;13.23;6.70;;;;;;;;;;5030681;28;20490;-50
2022/01/14 12:18:44;;;;;;;10.33;7.20;;;;;;;;;;5031248;28;20760;-53
2022/01/14 12:21:11;;;;;;;9.07;6.30;;;;;;;;;;5033442;28;20787;-52
2022/01/14 12:23:37;;;;;;;15.33;7.03;;;;;;;;;;5033653;28;20883;-50
2022/01/14 12:26:16;;;;;;;10.80;7.77;;;;;;;;;;5040279;28;20443;-50
2022/01/14 12:28:42;;;;;;;11.37;6.33;;;;;;;;;;5034907;28;20417;-51
2022/01/14 12:31:09;;;;;;;9.10;6.23;;;;;;;;;;5032151;28;20937;-52
2022/01/14 12:33:41;;;;;;;15.17;6.33;;;;;;;;;;5033206;28;20539;-49
2022/01/14 12:36:14;;;;;;;7.33;5.13;;;;;;;;;;5034302;28;20417;-49
2022/01/14 12:38:41;;;;;;;16.80;5.80;;;;;;;;;;5037031;28;20447;-50
2022/01/14 12:41:17;;;;;;;7.90;5.20;;;;;;;;;;5039733;28;20548;-51
2022/01/14 12:43:50;;;;;;;11.03;6.20;;;;;;;;;;5025268;28;20434;-50
2022/01/14 12:47:06;;;;;;;8.83;5.27;;;;;;;;;;5038774;28;20455;-49
2022/01/14 12:49:16;;;;;;;8.90;4.83;;;;;;;;;;5030303;28;20406;-53
2022/01/14 12:51:43;;;;;;;9.50;4.73;;;;;;;;;;5020667;28;20446;-50
2022/01/14 12:54:10;;;;;;;7.17;5.40;;;;;;;;;;5034449;28;20476;-55
2022/01/14 12:56:39;;;;;;;8.70;4.73;;;;;;;;;;5034309;28;20501;-50
2022/01/14 12:59:05;;;;;;;5.33;4.70;;;;;;;;;;5034607;28;20781;-50
2022/01/14 13:01:35;;;;;;;5.83;4.23;;;;;;;;;;5035042;28;20874;-51
2022/01/14 13:04:04;;;;;;;8.07;5.13;;;;;;;;;;5044869;28;21260;-51
2022/01/14 13:06:40;;;;;;;6.50;4.93;;;;;;;;;;5034691;28;20415;-51
2022/01/14 13:09:07;;;;;;;6.83;4.50;;;;;;;;;;5032878;28;20433;-50
2022/01/14 13:11:45;;;;;;;15.37;5.80;;;;;;;;;;5034042;28;20406;-50
2022/01/14 13:14:16;;;;;;;9.47;5.03;;;;;;;;;;5033701;28;20837;-51
2022/01/14 13:16:43;;;;;;;7.83;4.30;;;;;;;;;;5033427;28;20762;-52
2022/01/14 13:19:30;;;;;;;5.30;3.70;;;;;;;;;;5038336;28;20422;-50
2022/01/14 13:21:56;;;;;;;6.17;3.97;;;;;;;;;;5032798;28;20867;-53
2022/01/14 13:24:27;;;;;;;7.40;4.03;;;;;;;;;;5033259;28;20497;-50
2022/01/14 13:26:59;;;;;;;4.30;3.47;;;;;;;;;;5032095;28;20717;-51
2022/01/14 13:29:25;;;;;;;7.50;4.23;;;;;;;;;;5031975;28;20422;-50
2022/01/14 13:31:51;;;;;;;6.23;3.80;;;;;;;;;;5031889;28;20436;-49
2022/01/14 13:34:17;;;;;;;12.40;3.97;;;;;;;;;;5036535;28;20775;-48
2022/01/14 13:36:43;;;;;;;5.47;3.70;;;;;;;;;;5033982;28;20536;-53
2022/01/14 13:39:10;;;;;;;6.80;3.80;;;;;;;;;;5033910;28;20872;-52
2022/01/14 13:41:40;;;;;;;8.10;4.70;;;;;;;;;;5033450;28;20450;-49
2022/01/14 13:44:16;;;;;;;6.23;4.07;;;;;;;;;;5032925;28;20431;-50
2022/01/14 13:46:46;;;;;;;8.60;3.70;;;;;;;;;;5033475;28;20410;-52
2022/01/14 13:49:18;;;;;;;6.40;4.40;;;;;;;;;;5033359;28;20449;-54
2022/01/14 13:51:45;;;;;;;4.87;3.53;;;;;;;;;;5034595;28;20407;-51
2022/01/14 13:54:11;;;;;;;4.27;3.60;;;;;;;;;;5033098;28;20533;-53
2022/01/14 13:56:38;;;;;;;5.33;4.63;;;;;;;;;;5034590;28;20410;-51
2022/01/14 13:59:04;;;;;;;7.50;4.27;;;;;;;;;;5033092;28;20417;-54
2022/01/14 14:01:31;;;;;;;4.03;2.80;;;;;;;;;;5031103;28;20832;-50
2022/01/14 14:04:02;;;;;;;6.13;3.20;;;;;;;;;;5033067;28;20822;-53
2022/01/14 14:06:33;;;;;;;5.20;3.37;;;;;;;;;;5033121;28;20463;-54
2022/01/14 14:16:58;;;;;;;6.33;3.10;;;;;;;;;;5016589;28;20418;-52
2022/01/14 14:19:25;;;;;;;4.17;2.90;;;;;;;;;;5038096;28;20425;-50
2022/01/14 14:22:06;;;;;;;3.60;2.60;;;;;;;;;;5040578;28;20505;-55
2022/01/14 14:24:32;;;;;;;4.20;2.90;;;;;;;;;;5047006;28;20402;-50
2022/01/14 14:27:08;;;;;;;5.73;3.00;;;;;;;;;;5029423;28;20419;-66
2022/01/14 14:29:34;;;;;;;3.70;2.53;;;;;;;;;;5036206;28;20509;-66
2022/01/14 14:32:14;;;;;;;5.87;3.00;;;;;;;;;;5034468;28;20445;-58
2022/01/14 14:34:40;;;;;;;5.07;3.23;;;;;;;;;;5033585;28;20801;-62
2022/01/14 14:37:06;;;;;;;4.97;2.90;;;;;;;;;;5038592;28;20429;-62
2022/01/14 14:39:34;;;;;;;4.60;3.40;;;;;;;;;;5034471;28;20758;-67
2022/01/14 14:42:00;;;;;;;4.27;2.93;;;;;;;;;;5036232;28;20458;-50
2022/01/14 14:44:26;;;;;;;5.30;3.00;;;;;;;;;;5038614;28;20487;-50
2022/01/14 14:46:52;;;;;;;5.10;3.30;;;;;;;;;;5024886;28;20414;-49
2022/01/14 14:49:18;;;;;;;5.00;3.37;;;;;;;;;;5021858;28;20466;-51
2022/01/14 14:51:45;;;;;;;4.07;2.73;;;;;;;;;;5031556;28;20426;-50
2022/01/14 14:54:11;;;;;;;3.37;3.07;;;;;;;;;;5023953;28;20457;-51
2022/01/14 14:56:37;;;;;;;6.50;3.40;;;;;;;;;;5032818;28;20958;-52
2022/01/14 14:59:03;;;;;;;5.43;2.93;;;;;;;;;;5034756;28;20423;-54
2022/01/14 15:01:29;;;;;;;3.60;2.53;;;;;;;;;;5036323;28;20460;-51
2022/01/14 15:03:55;;;;;;;3.43;2.40;;;;;;;;;;5036500;28;20453;-51